Time;durP1;ratioP1;P1;durP2;ratioP2;P2;SDS_P1;SDS_P2;PMS_P1;PMS_P2;Temp;Humidity;BMP_temperature;BMP_pressure;BME280_temperature;BME280_humidity;BME280_pressure;Samples;Min_cycle;Max_cycle;Signal;HPM_P1;HPM_P2
2023/05/03 00:02:25;;;;;;;8.65;7.85;;;;;;;8.02;64.48;102748.19;5097576;28;20020;-64
2023/05/03 00:04:56;;;;;;;9.02;8.13;;;;;;;7.94;65.10;102750.97;5094137;28;20026;-64
2023/05/03 00:07:23;;;;;;;8.57;7.75;;;;;;;8.03;65.34;102742.84;5092184;28;20594;-64
2023/05/03 00:09:49;;;;;;;8.45;7.65;;;;;;;7.91;65.32;102741.34;5094121;28;20028;-64
2023/05/03 00:12:14;;;;;;;11.80;8.73;;;;;;;7.83;65.63;102753.00;5093833;28;20532;-64
2023/05/03 00:14:40;;;;;;;7.03;6.35;;;;;;;8.05;64.97;102750.75;5094456;28;20066;-64
2023/05/03 00:17:05;;;;;;;6.68;5.70;;;;;;;8.09;64.78;102745.38;5094090;28;20016;-64
2023/05/03 00:19:32;;;;;;;9.75;7.88;;;;;;;8.06;64.64;102752.50;5092716;28;20044;-64
2023/05/03 00:21:58;;;;;;;7.80;7.10;;;;;;;8.08;64.84;102751.56;5093749;28;20012;-64
2023/05/03 00:24:24;;;;;;;10.38;6.45;;;;;;;7.87;65.33;102747.59;5092727;28;20024;-64
2023/05/03 00:26:49;;;;;;;9.57;8.02;;;;;;;7.84;65.30;102742.34;5093661;28;20524;-64
2023/05/03 00:29:15;;;;;;;9.52;8.30;;;;;;;7.79;66.05;102746.88;5092548;28;20047;-64
2023/05/03 00:31:43;;;;;;;8.95;7.05;;;;;;;7.73;65.64;102720.53;5095575;28;20032;-64
2023/05/03 00:34:08;;;;;;;9.20;7.85;;;;;;;7.84;65.62;102749.44;5097328;28;20495;-64
2023/05/03 00:36:34;;;;;;;7.38;5.95;;;;;;;7.86;65.49;102745.00;5093683;28;20097;-64
2023/05/03 00:39:02;;;;;;;7.95;7.20;;;;;;;7.47;66.42;102731.63;5096146;28;20026;-64
2023/05/03 00:41:27;;;;;;;7.30;6.55;;;;;;;7.63;66.25;102733.09;5093168;28;20016;-64
2023/05/03 00:43:53;;;;;;;8.13;6.75;;;;;;;7.87;65.59;102755.53;5093675;28;20023;-64
2023/05/03 00:46:18;;;;;;;9.23;8.23;;;;;;;7.38;66.74;102747.69;5093597;28;20020;-64
2023/05/03 00:48:49;;;;;;;12.02;7.40;;;;;;;7.53;66.74;102746.53;5110020;28;20359;-64
2023/05/03 00:51:15;;;;;;;9.50;5.95;;;;;;;7.70;66.19;102749.72;5093415;28;20027;-64
2023/05/03 00:53:42;;;;;;;8.40;7.70;;;;;;;7.29;67.09;102746.09;5106377;28;20031;-64
2023/05/03 00:56:08;;;;;;;11.48;8.48;;;;;;;7.51;67.41;102741.28;5107858;27;20023;-64
2023/05/03 00:58:38;;;;;;;9.43;6.55;;;;;;;7.61;66.61;102741.97;5112195;27;20023;-64
2023/05/03 01:01:04;;;;;;;;;;;;;;;7.78;64.85;102738.97;5106476;28;20028;-64
2023/05/03 01:03:35;;;;;;;5.88;5.38;;;;;;;7.70;65.85;102742.63;5096077;28;19915;-64
2023/05/03 01:06:17;;;;;;;7.78;6.15;;;;;;;7.66;65.64;102740.09;5095095;28;20028;-64
2023/05/03 01:09:06;;;;;;;6.20;5.60;;;;;;;7.76;65.56;102731.03;5093147;28;20031;-64
2023/05/03 01:12:05;;;;;;;8.57;6.93;;;;;;;7.64;65.72;102740.13;5118190;27;20028;-64
2023/05/03 01:14:55;;;;;;;7.13;5.43;;;;;;;7.70;65.72;102739.13;5091755;28;20270;-64
2023/05/03 01:17:25;;;;;;;;;;;;;;;7.84;64.15;102738.84;5093130;28;20020;-64
2023/05/03 01:19:56;;;;;;;5.60;5.10;;;;;;;7.63;65.90;102745.47;5096249;28;19941;-64
2023/05/03 01:22:37;;;;;;;10.38;6.95;;;;;;;7.45;66.38;102746.69;5092481;28;20024;-64
2023/05/03 01:25:06;;;;;;;7.85;6.07;;;;;;;7.43;66.70;102746.72;5094922;28;20039;-64
2023/05/03 01:27:32;;;;;;;8.05;5.90;;;;;;;7.41;66.42;102739.69;5094834;28;20020;-64
2023/05/03 01:30:05;;;;;;;9.68;8.65;;;;;;;7.18;66.96;102741.03;5090787;28;20379;-64
2023/05/03 01:32:45;;;;;;;8.27;6.95;;;;;;;7.22;67.13;102748.00;5101683;28;20383;-64
2023/05/03 01:35:10;;;;;;;7.15;6.45;;;;;;;7.40;66.92;102748.56;5082801;28;20024;-64
2023/05/03 01:37:37;;;;;;;7.93;6.38;;;;;;;7.37;67.00;102745.97;5090610;28;20493;-64
2023/05/03 01:40:06;;;;;;;6.40;5.80;;;;;;;7.31;67.12;102735.50;5091262;28;20031;-64
2023/05/03 01:42:35;;;;;;;8.35;6.90;;;;;;;7.04;67.88;102754.50;5090958;28;20024;-64
2023/05/03 01:45:02;;;;;;;8.07;5.78;;;;;;;7.21;67.77;102740.09;5092625;28;20031;-64
2023/05/03 01:47:28;;;;;;;7.57;6.22;;;;;;;7.18;67.28;102746.31;5092156;28;20473;-64
2023/05/03 01:49:53;;;;;;;11.43;6.38;;;;;;;7.21;68.03;102746.25;5092394;28;20136;-64
2023/05/03 01:52:19;;;;;;;8.82;6.22;;;;;;;7.20;67.96;102748.91;5108401;28;20028;-64
2023/05/03 01:54:44;;;;;;;7.30;6.70;;;;;;;7.09;68.19;102746.50;5111303;28;20058;-64
2023/05/03 01:57:09;;;;;;;7.80;6.82;;;;;;;7.04;68.12;102751.84;5110226;28;20068;-64
2023/05/03 01:59:35;;;;;;;7.60;6.07;;;;;;;7.04;68.68;102748.34;5111188;28;20367;-64
2023/05/03 02:02:00;;;;;;;8.00;6.97;;;;;;;7.01;68.37;102749.25;5109231;28;20121;-64
2023/05/03 02:04:26;;;;;;;6.93;6.25;;;;;;;6.99;68.65;102736.94;5109841;28;20031;-64
2023/05/03 02:06:54;;;;;;;8.30;6.20;;;;;;;7.04;68.27;102751.84;5107201;28;20024;-64
2023/05/03 02:09:19;;;;;;;7.32;6.47;;;;;;;7.08;68.08;102747.38;5094168;28;20028;-64
2023/05/03 02:11:45;;;;;;;8.38;6.28;;;;;;;7.05;68.38;102742.13;5098537;28;20027;-64
2023/05/03 02:14:11;;;;;;;9.23;7.80;;;;;;;6.96;68.49;102748.47;5111635;28;20034;-64
2023/05/03 02:16:39;;;;;;;8.32;6.43;;;;;;;7.00;67.72;102728.09;5109251;28;20500;-64
2023/05/03 02:19:04;;;;;;;9.85;6.35;;;;;;;7.06;67.77;102749.19;5071986;28;20414;-64
2023/05/03 02:21:30;;;;;;;9.65;6.18;;;;;;;7.00;68.00;102744.88;5105471;28;20023;-64
2023/05/03 02:23:55;;;;;;;8.32;6.72;;;;;;;6.88;68.59;102729.19;5109927;28;20024;-64
2023/05/03 02:26:21;;;;;;;6.82;6.15;;;;;;;6.87;68.72;102722.16;5112128;28;20110;-64
2023/05/03 02:28:46;;;;;;;11.18;6.72;;;;;;;6.88;68.71;102734.47;5109767;28;20301;-64
2023/05/03 02:31:17;;;;;;;8.73;7.07;;;;;;;6.85;69.10;102729.25;5109918;28;20403;-64
2023/05/03 02:33:42;;;;;;;8.30;6.40;;;;;;;6.90;68.51;102731.84;5109718;28;20486;-64
2023/05/03 02:36:08;;;;;;;12.23;6.50;;;;;;;6.76;69.41;102721.47;5110599;28;20023;-64
2023/05/03 02:38:33;;;;;;;6.88;6.28;;;;;;;6.89;68.88;102717.75;5111857;28;20386;-64
2023/05/03 02:40:58;;;;;;;13.43;7.18;;;;;;;6.83;69.03;102712.56;5110629;28;20022;-64
2023/05/03 02:43:26;;;;;;;10.00;7.40;;;;;;;6.72;69.16;102712.72;5108086;28;20028;-64
2023/05/03 02:45:51;;;;;;;10.77;8.52;;;;;;;6.72;68.87;102711.88;5106496;28;20115;-64
2023/05/03 02:48:17;;;;;;;12.35;8.25;;;;;;;6.68;68.92;102705.75;5109236;28;20160;-64
2023/05/03 02:50:42;;;;;;;10.25;8.88;;;;;;;6.58;69.21;102698.88;5110371;28;20027;-64
2023/05/03 02:53:08;;;;;;;11.27;7.50;;;;;;;6.66;69.21;102682.88;5110642;28;20034;-64
2023/05/03 02:55:33;;;;;;;12.02;7.88;;;;;;;6.54;69.19;102690.13;5109670;28;20466;-64
2023/05/03 02:57:59;;;;;;;8.85;5.68;;;;;;;6.76;68.88;102677.38;5110784;28;20099;-64
2023/05/03 03:00:25;;;;;;;9.38;7.13;;;;;;;6.70;68.80;102684.56;5108525;28;20530;-64
2023/05/03 03:02:50;;;;;;;8.18;7.40;;;;;;;6.47;69.41;102683.19;5110273;28;20027;-64
2023/05/03 03:05:16;;;;;;;12.18;7.45;;;;;;;6.63;69.03;102690.88;5098343;28;20051;-64
2023/05/03 03:07:42;;;;;;;6.63;6.05;;;;;;;6.56;69.07;102703.31;5096011;28;20039;-64
2023/05/03 03:10:08;;;;;;;8.95;7.20;;;;;;;6.49;69.26;102699.88;5111288;28;20026;-64
2023/05/03 03:12:37;;;;;;;10.82;5.95;;;;;;;6.64;68.56;102714.63;5091418;28;20026;-64
2023/05/03 03:15:03;;;;;;;8.50;7.10;;;;;;;6.58;68.81;102712.94;5104241;28;20486;-64
2023/05/03 03:17:29;;;;;;;8.23;6.85;;;;;;;6.64;69.28;102706.69;5096579;28;20077;-64
2023/05/03 03:19:54;;;;;;;8.80;7.88;;;;;;;6.51;69.58;102713.97;5093814;28;20024;-64
2023/05/03 03:22:21;;;;;;;9.00;5.50;;;;;;;6.66;69.13;102709.31;5094713;28;20055;-64
2023/05/03 03:24:46;;;;;;;8.57;7.07;;;;;;;6.50;69.32;102704.28;5095125;28;20028;-64
2023/05/03 03:27:12;;;;;;;8.73;6.32;;;;;;;6.52;69.07;102714.81;5095260;28;20028;-64
2023/05/03 03:29:37;;;;;;;9.77;6.18;;;;;;;6.46;69.50;102723.72;5093975;28;20131;-64
2023/05/03 03:32:03;;;;;;;8.10;7.38;;;;;;;6.14;70.84;102730.34;5096919;28;20039;-64
2023/05/03 03:34:28;;;;;;;12.20;9.25;;;;;;;6.08;70.53;102713.72;5094979;28;20020;-64
2023/05/03 03:36:53;;;;;;;6.50;5.78;;;;;;;6.28;70.14;102718.72;5094490;28;20024;-64
2023/05/03 03:39:19;;;;;;;10.63;6.63;;;;;;;6.25;70.47;102711.72;5093719;28;20453;-64
2023/05/03 03:41:47;;;;;;;10.15;7.05;;;;;;;6.28;70.10;102701.09;5094866;28;20020;-64
2023/05/03 03:44:14;;;;;;;7.50;6.78;;;;;;;6.29;70.39;102707.25;5095109;28;20483;-64
2023/05/03 03:46:40;;;;;;;12.57;8.75;;;;;;;6.27;70.12;102712.56;5094807;28;20052;-64
2023/05/03 03:49:06;;;;;;;7.32;6.00;;;;;;;6.38;69.77;102707.09;5093002;28;20059;-64
2023/05/03 03:51:32;;;;;;;11.48;9.13;;;;;;;6.08;70.53;102697.88;5094207;28;20425;-64
2023/05/03 03:53:57;;;;;;;7.55;6.78;;;;;;;6.25;70.77;102705.56;5094618;28;20032;-64
2023/05/03 03:56:24;;;;;;;11.90;7.32;;;;;;;6.20;70.97;102708.25;5094528;28;20076;-64
2023/05/03 03:58:49;;;;;;;11.65;9.45;;;;;;;6.13;70.58;102711.91;5094407;28;20364;-64
2023/05/03 04:01:15;;;;;;;10.95;6.53;;;;;;;6.21;71.11;102720.59;5093308;28;20012;-64
2023/05/03 04:03:41;;;;;;;11.50;8.70;;;;;;;6.03;70.94;102712.91;5094374;28;20024;-64
2023/05/03 04:06:08;;;;;;;11.38;10.02;;;;;;;5.83;71.02;102726.38;5094182;28;20498;-64
2023/05/03 04:08:34;;;;;;;6.97;6.28;;;;;;;6.00;72.08;102713.84;5094155;28;20035;-64
2023/05/03 04:11:01;;;;;;;6.93;6.30;;;;;;;5.94;71.30;102715.69;5094078;28;20024;-64
2023/05/03 04:13:26;;;;;;;10.57;7.75;;;;;;;6.01;72.00;102720.88;5093147;28;20391;-64
2023/05/03 04:15:55;;;;;;;10.93;9.93;;;;;;;5.96;71.30;102724.47;5094178;28;20016;-64
2023/05/03 04:18:21;;;;;;;9.30;6.07;;;;;;;6.06;71.86;102728.72;5099068;28;20026;-64
2023/05/03 04:20:47;;;;;;;8.95;7.80;;;;;;;5.97;71.79;102723.56;5091976;28;20036;-64
2023/05/03 04:23:12;;;;;;;11.55;10.48;;;;;;;5.95;71.77;102728.00;5093124;28;20030;-64
2023/05/03 04:25:45;;;;;;;8.60;6.63;;;;;;;6.07;71.77;102726.06;5094218;28;20028;-64
2023/05/03 04:28:11;;;;;;;8.85;7.10;;;;;;;5.98;71.30;102715.63;5096202;28;20451;-64
2023/05/03 04:30:36;;;;;;;7.93;6.60;;;;;;;5.99;71.44;102725.28;5092852;28;20131;-64
2023/05/03 04:33:03;;;;;;;10.45;9.18;;;;;;;5.79;72.53;102714.09;5111259;28;20023;-64
2023/05/03 04:35:31;;;;;;;8.38;7.18;;;;;;;5.96;72.35;102727.97;5114298;28;20390;-64
2023/05/03 04:37:57;;;;;;;12.35;10.13;;;;;;;5.64;72.55;102736.28;5110011;28;20024;-64
2023/05/03 04:40:25;;;;;;;10.68;7.05;;;;;;;5.97;72.78;102745.59;5094369;28;20035;-64
2023/05/03 04:42:50;;;;;;;10.45;7.00;;;;;;;5.96;72.09;102750.88;5093461;28;20449;-64
2023/05/03 04:45:17;;;;;;;12.27;8.50;;;;;;;5.79;73.13;102748.41;5096741;28;20027;-64
2023/05/03 04:47:43;;;;;;;8.93;7.30;;;;;;;5.97;72.19;102760.53;5095089;28;20394;-64
2023/05/03 04:50:09;;;;;;;11.43;10.32;;;;;;;5.81;73.06;102771.25;5093573;28;20020;-64
2023/05/03 04:52:35;;;;;;;12.23;8.07;;;;;;;5.85;73.04;102774.72;5096046;28;20466;-64
2023/05/03 04:55:00;;;;;;;10.85;7.53;;;;;;;5.79;73.38;102780.97;5092465;28;20084;-63
2023/05/03 04:57:26;;;;;;;10.13;7.32;;;;;;;5.81;73.26;102778.31;5091948;28;20378;-64
2023/05/03 04:59:53;;;;;;;10.38;8.07;;;;;;;5.91;73.26;102782.56;5093390;28;20020;-64
2023/05/03 05:02:20;;;;;;;12.23;10.88;;;;;;;5.80;73.96;102789.78;5093135;28;20024;-64
2023/05/03 05:04:45;;;;;;;14.23;8.10;;;;;;;5.88;74.24;102782.63;5105038;28;21603;-64
2023/05/03 05:07:11;;;;;;;12.38;11.23;;;;;;;5.90;72.95;102789.63;5092414;28;20077;-64
2023/05/03 05:09:39;;;;;;;11.35;8.30;;;;;;;6.00;73.48;102790.44;5091922;28;20525;-64
2023/05/03 05:12:07;;;;;;;14.27;7.57;;;;;;;6.16;72.57;102799.03;5091691;28;20016;-64
2023/05/03 05:14:35;;;;;;;16.88;11.63;;;;;;;6.09;73.21;102797.38;5091145;28;20050;-64
2023/05/03 05:17:03;;;;;;;8.88;7.82;;;;;;;6.34;71.83;102792.63;5097111;28;20099;-64
2023/05/03 05:19:30;;;;;;;9.93;8.50;;;;;;;6.45;71.78;102787.19;5092714;28;20130;-64
2023/05/03 05:21:56;;;;;;;9.15;7.32;;;;;;;6.56;71.06;102790.56;5092342;28;20091;-64
2023/05/03 05:24:22;;;;;;;14.98;11.30;;;;;;;6.52;70.42;102773.84;5091536;28;20115;-64
2023/05/03 05:26:47;;;;;;;12.60;9.07;;;;;;;6.72;70.22;102791.19;5092549;28;20028;-64
2023/05/03 05:29:13;;;;;;;9.13;7.35;;;;;;;6.81;70.22;102778.69;5092637;28;20030;-63
2023/05/03 05:31:38;;;;;;;11.85;7.82;;;;;;;6.96;69.63;102787.28;5093994;28;20177;-64
2023/05/03 05:34:04;;;;;;;15.25;12.27;;;;;;;6.93;69.53;102784.69;5092195;28;20027;-64
2023/05/03 05:36:30;;;;;;;10.10;8.35;;;;;;;6.98;69.13;102786.34;5090886;28;20026;-64
2023/05/03 05:38:55;;;;;;;14.02;11.93;;;;;;;6.91;68.63;102787.38;5092587;28;20026;-64
2023/05/03 05:41:21;;;;;;;9.20;7.18;;;;;;;7.06;69.07;102783.59;5092571;28;20063;-64
2023/05/03 05:43:47;;;;;;;13.73;10.43;;;;;;;6.92;69.21;102769.72;5091310;28;20073;-63
2023/05/03 05:46:12;;;;;;;12.88;11.20;;;;;;;7.08;68.66;102778.25;5098546;28;20546;-64
2023/05/03 05:48:38;;;;;;;10.73;8.25;;;;;;;7.23;68.24;102785.91;5099159;28;20076;-63
2023/05/03 05:51:04;;;;;;;13.57;11.60;;;;;;;7.12;68.69;102783.47;5092314;28;20028;-64
2023/05/03 05:53:30;;;;;;;14.73;10.02;;;;;;;7.20;68.55;102792.13;5092472;28;20081;-63
2023/05/03 05:55:55;;;;;;;11.20;7.47;;;;;;;7.34;68.42;102788.38;5092343;28;20463;-64
2023/05/03 05:58:21;;;;;;;12.68;10.13;;;;;;;7.28;67.91;102789.34;5091015;28;20399;-64
2023/05/03 06:00:47;;;;;;;10.73;9.70;;;;;;;7.43;67.82;102797.00;5091949;28;20072;-64
2023/05/03 06:03:14;;;;;;;12.10;10.77;;;;;;;7.43;68.13;102802.31;5092169;28;20051;-64
2023/05/03 06:05:40;;;;;;;7.70;7.00;;;;;;;7.63;67.25;102786.06;5091086;28;20078;-64
2023/05/03 06:08:05;;;;;;;8.50;7.75;;;;;;;7.65;67.29;102783.38;5095687;28;20024;-64
2023/05/03 06:10:31;;;;;;;9.55;8.02;;;;;;;7.76;66.36;102783.16;5095437;28;20459;-64
2023/05/03 06:12:56;;;;;;;17.48;7.72;;;;;;;7.92;66.33;102795.19;5090865;28;20107;-63
2023/05/03 06:15:22;;;;;;;8.82;7.97;;;;;;;8.05;65.66;102791.38;5092082;28;20020;-64
2023/05/03 06:17:47;;;;;;;8.15;6.50;;;;;;;8.07;67.14;102773.66;5092417;28;20031;-64
2023/05/03 06:20:13;;;;;;;8.32;7.55;;;;;;;8.22;66.23;102768.94;5090671;28;20095;-64
2023/05/03 06:22:38;;;;;;;13.52;7.75;;;;;;;8.33;64.97;102778.41;5091590;28;20044;-64
2023/05/03 06:25:04;;;;;;;11.77;10.18;;;;;;;8.33;65.05;102781.06;5090559;28;20064;-64
2023/05/03 06:27:29;;;;;;;13.50;9.82;;;;;;;8.36;64.34;102777.47;5091375;28;20031;-64
2023/05/03 06:29:55;;;;;;;13.73;7.82;;;;;;;8.53;65.41;102783.28;5091604;28;20032;-64
2023/05/03 06:32:20;;;;;;;11.85;9.80;;;;;;;8.48;64.35;102774.56;5090106;28;20026;-64
2023/05/03 06:34:47;;;;;;;10.45;8.18;;;;;;;8.72;64.07;102790.81;5091530;28;20022;-64
2023/05/03 06:37:14;;;;;;;10.50;9.52;;;;;;;8.67;63.43;102782.06;5090273;28;20020;-63
2023/05/03 06:39:39;;;;;;;9.85;7.40;;;;;;;8.85;63.90;102787.81;5091752;28;20028;-63
2023/05/03 06:42:05;;;;;;;11.35;9.48;;;;;;;8.89;63.18;102785.97;5090223;28;20021;-63
2023/05/03 06:44:30;;;;;;;13.23;7.05;;;;;;;9.10;62.65;102774.78;5092371;28;20024;-63
2023/05/03 06:46:55;;;;;;;10.20;9.15;;;;;;;9.09;61.97;102774.84;5094420;28;20031;-63
2023/05/03 06:49:21;;;;;;;10.95;9.85;;;;;;;9.24;61.53;102779.75;5097882;28;20439;-63
2023/05/03 06:51:47;;;;;;;12.18;9.80;;;;;;;9.36;60.98;102780.34;5100740;28;20030;-63
2023/05/03 06:54:13;;;;;;;16.65;9.75;;;;;;;9.45;61.09;102761.50;5111436;28;20027;-63
2023/05/03 06:56:38;;;;;;;11.77;9.13;;;;;;;9.53;60.95;102756.84;5111490;28;20023;-64
2023/05/03 06:59:04;;;;;;;10.50;9.27;;;;;;;9.57;60.27;102754.97;5100193;28;20427;-63
2023/05/03 07:01:33;;;;;;;10.23;8.73;;;;;;;9.69;60.25;102760.78;5110893;28;20106;-63
2023/05/03 07:03:58;;;;;;;12.60;9.63;;;;;;;9.64;60.03;102759.19;5113435;28;20546;-63
2023/05/03 07:06:24;;;;;;;12.10;9.70;;;;;;;9.83;59.39;102764.84;5113202;28;20028;-63
2023/05/03 07:08:51;;;;;;;10.32;9.32;;;;;;;9.92;59.34;102767.25;5114623;28;20435;-63
2023/05/03 07:11:17;;;;;;;16.85;10.23;;;;;;;9.99;59.79;102768.78;5113663;28;20509;-63
2023/05/03 07:13:42;;;;;;;16.20;10.27;;;;;;;10.18;58.93;102770.00;5110782;28;20478;-63
2023/05/03 07:16:10;;;;;;;14.02;10.70;;;;;;;10.21;59.21;102764.56;5099333;28;20081;-64
2023/05/03 07:18:35;;;;;;;11.85;10.68;;;;;;;10.18;58.12;102769.13;5095309;28;20043;-64
2023/05/03 07:21:04;;;;;;;20.48;11.25;;;;;;;10.31;57.97;102762.53;5105662;28;20019;-64
2023/05/03 07:23:30;;;;;;;12.73;10.63;;;;;;;10.40;58.24;102759.56;5112975;28;20023;-64
2023/05/03 07:25:56;;;;;;;11.65;10.10;;;;;;;10.54;56.98;102768.94;5083459;28;20427;-64
2023/05/03 07:28:22;;;;;;;15.68;11.25;;;;;;;10.59;56.79;102766.97;5082640;28;20027;-63
2023/05/03 07:30:47;;;;;;;13.05;11.00;;;;;;;10.62;56.63;102775.75;5114233;28;20108;-64
2023/05/03 07:33:12;;;;;;;10.65;9.63;;;;;;;10.71;56.78;102765.69;5115447;28;20390;-63
2023/05/03 07:35:38;;;;;;;96.05;16.88;;;;;;;10.91;56.33;102761.47;5096020;28;20035;-63
2023/05/03 07:38:05;;;;;;;11.73;8.98;;;;;;;10.98;55.75;102751.47;5098706;28;20112;-64
2023/05/03 07:40:32;;;;;;;11.48;10.40;;;;;;;11.09;55.41;102752.00;5103801;28;20410;-63
2023/05/03 07:43:00;;;;;;;10.73;9.63;;;;;;;11.20;54.99;102758.72;5113953;28;20110;-64
2023/05/03 07:45:26;;;;;;;11.70;9.80;;;;;;;11.25;54.14;102754.09;5115102;28;20089;-63
2023/05/03 07:47:51;;;;;;;13.82;10.52;;;;;;;11.21;54.13;102734.72;5103114;28;20062;-64
2023/05/03 07:50:17;;;;;;;10.70;9.13;;;;;;;11.45;53.49;102746.28;5110033;28;20106;-63
2023/05/03 07:52:42;;;;;;;13.82;8.93;;;;;;;11.61;54.01;102741.25;5109228;28;20032;-64
2023/05/03 07:55:08;;;;;;;9.48;8.32;;;;;;;11.69;53.40;102741.84;5114450;28;20026;-63
2023/05/03 07:57:35;;;;;;;10.30;8.85;;;;;;;11.71;52.86;102739.13;5114833;28;20043;-63
2023/05/03 08:00:00;;;;;;;9.55;8.52;;;;;;;11.92;52.47;102722.34;5108807;28;20028;-63
2023/05/03 08:02:28;;;;;;;10.32;9.20;;;;;;;11.95;52.15;102732.88;5092832;28;20015;-64
2023/05/03 08:04:56;;;;;;;13.98;9.32;;;;;;;11.99;51.59;102728.28;5094174;28;20475;-64
2023/05/03 08:07:22;;;;;;;10.20;9.15;;;;;;;12.01;50.97;102729.97;5109712;28;20367;-63
2023/05/03 08:09:48;;;;;;;11.57;8.80;;;;;;;12.14;51.04;102718.81;5113255;28;20053;-64
2023/05/03 08:12:13;;;;;;;10.13;8.75;;;;;;;12.15;50.77;102715.25;5110094;28;20019;-64
2023/05/03 08:14:39;;;;;;;13.57;9.18;;;;;;;12.22;49.74;102714.91;5113897;28;20085;-64
2023/05/03 08:17:04;;;;;;;14.25;8.18;;;;;;;12.24;49.51;102697.06;5114792;28;20048;-64
2023/05/03 08:19:30;;;;;;;9.70;8.43;;;;;;;12.28;50.19;102706.66;5109636;28;20023;-64
2023/05/03 08:21:55;;;;;;;15.68;9.43;;;;;;;12.47;50.62;102711.25;5102580;28;20543;-64
2023/05/03 08:24:21;;;;;;;9.88;9.02;;;;;;;12.66;49.76;102706.03;5113130;28;20023;-64
2023/05/03 08:26:47;;;;;;;11.38;8.13;;;;;;;12.75;49.55;102707.44;5112815;28;20111;-64
2023/05/03 08:29:15;;;;;;;10.90;8.77;;;;;;;12.94;48.19;102695.91;5112697;28;20098;-64
2023/05/03 08:31:43;;;;;;;11.63;8.75;;;;;;;12.96;48.44;102711.88;5106846;28;20055;-64
2023/05/03 08:34:09;;;;;;;9.20;7.80;;;;;;;12.95;47.25;102718.16;5114503;28;20027;-64
2023/05/03 08:36:37;;;;;;;8.85;8.05;;;;;;;12.98;46.23;102695.78;5113719;28;20023;-64
2023/05/03 08:39:05;;;;;;;8.68;7.93;;;;;;;12.98;46.05;102709.13;5107038;28;20213;-64
2023/05/03 08:41:32;;;;;;;8.52;7.72;;;;;;;13.01;46.42;102699.19;5101032;28;20037;-63
2023/05/03 08:43:59;;;;;;;12.35;8.40;;;;;;;13.11;47.06;102697.84;5112330;28;20015;-63
2023/05/03 08:46:27;;;;;;;10.98;8.02;;;;;;;13.14;45.52;102696.84;5105200;27;20031;-64
2023/05/03 08:48:53;;;;;;;11.27;8.32;;;;;;;13.29;45.79;102701.53;5111040;28;20036;-64
2023/05/03 08:51:23;;;;;;;8.80;7.80;;;;;;;13.38;44.94;102690.44;5110234;28;20086;-64
2023/05/03 08:53:49;;;;;;;13.75;8.52;;;;;;;13.43;44.87;102700.91;5113828;28;20035;-64
2023/05/03 08:56:23;;;;;;;8.60;7.80;;;;;;;13.59;45.01;102719.81;5108213;28;20434;-63
2023/05/03 08:58:49;;;;;;;10.10;7.88;;;;;;;13.54;44.14;102716.47;5114048;28;20015;-63
2023/05/03 09:01:15;;;;;;;10.82;8.10;;;;;;;13.64;44.88;102715.97;5096086;28;20552;-64
2023/05/03 09:03:48;;;;;;;8.77;7.97;;;;;;;13.75;44.84;102715.47;5100420;28;20035;-64
2023/05/03 09:06:26;;;;;;;9.60;8.60;;;;;;;13.82;46.54;102714.28;5090769;28;20129;-64
2023/05/03 09:08:53;;;;;;;9.95;7.63;;;;;;;14.00;43.77;102711.63;5094624;28;20028;-64
2023/05/03 09:11:23;;;;;;;7.97;7.20;;;;;;;14.15;44.77;102716.28;5090135;28;20024;-64
2023/05/03 09:13:51;;;;;;;13.38;7.80;;;;;;;14.20;43.94;102714.22;5101339;28;20027;-64
2023/05/03 09:16:26;;;;;;;8.48;7.68;;;;;;;14.29;43.56;102708.44;5093775;28;20126;-64
2023/05/03 09:18:59;;;;;;;11.95;7.60;;;;;;;14.49;42.92;102711.94;5092757;28;20028;-64
2023/05/03 09:21:24;;;;;;;9.68;7.70;;;;;;;14.50;42.88;102706.53;5096052;28;20026;-64
2023/05/03 09:23:50;;;;;;;11.13;7.60;;;;;;;14.64;42.24;102708.53;5092883;28;20032;-64
2023/05/03 09:26:33;;;;;;;8.52;7.70;;;;;;;14.64;43.01;102694.28;5092920;28;20099;-64
2023/05/03 09:29:00;;;;;;;8.65;7.65;;;;;;;14.76;42.04;102707.03;5092086;28;20020;-64
2023/05/03 09:31:32;;;;;;;9.23;8.20;;;;;;;14.61;41.80;102707.81;5096073;28;20040;-64
2023/05/03 09:33:57;;;;;;;8.02;7.22;;;;;;;14.81;42.12;102702.31;5072349;28;20086;-64
2023/05/03 09:36:24;;;;;;;9.52;8.50;;;;;;;14.88;41.04;102713.56;5086781;28;20023;-63
2023/05/03 09:38:50;;;;;;;7.63;6.88;;;;;;;14.90;41.88;102707.19;5096860;28;20030;-64
2023/05/03 09:41:26;;;;;;;8.90;7.43;;;;;;;14.84;42.22;102703.97;5098042;28;20050;-64
2023/05/03 09:43:54;;;;;;;11.10;7.65;;;;;;;14.97;41.71;102699.69;5072205;28;20024;-64
2023/05/03 09:46:19;;;;;;;12.00;7.78;;;;;;;14.91;41.08;102708.94;5081681;28;20024;-64
2023/05/03 09:48:45;;;;;;;11.48;8.40;;;;;;;14.93;41.21;102698.13;5091129;28;20394;-64
2023/05/03 09:51:15;;;;;;;9.85;7.65;;;;;;;14.95;41.14;102698.94;5101582;28;20027;-64
2023/05/03 09:53:40;;;;;;;8.63;7.47;;;;;;;15.16;39.68;102689.75;5111828;28;20059;-64
2023/05/03 09:56:11;;;;;;;8.38;7.00;;;;;;;15.39;40.53;102685.00;5110946;28;20047;-64
2023/05/03 09:58:37;;;;;;;7.60;6.82;;;;;;;15.58;39.46;102684.84;5112747;28;20023;-64
2023/05/03 10:01:06;;;;;;;8.52;7.57;;;;;;;15.60;38.99;102688.31;5107308;28;20027;-64
2023/05/03 10:03:40;;;;;;;13.60;6.70;;;;;;;15.65;39.77;102692.50;5081807;28;20028;-64
2023/05/03 10:06:10;;;;;;;8.07;7.28;;;;;;;15.69;39.00;102685.16;5092793;28;20024;-63
2023/05/03 10:08:51;;;;;;;7.82;6.95;;;;;;;15.92;39.45;102683.88;5087346;28;20047;-63
2023/05/03 10:11:17;;;;;;;7.97;6.72;;;;;;;15.80;38.82;102687.25;5094599;28;20394;-64
2023/05/03 10:13:45;;;;;;;8.05;6.72;;;;;;;15.91;38.69;102679.44;5112502;28;20035;-64
2023/05/03 10:16:19;;;;;;;10.35;7.40;;;;;;;16.13;38.93;102676.44;5108098;28;20148;-63
2023/05/03 10:19:10;;;;;;;10.88;7.38;;;;;;;16.26;38.49;102681.94;5103166;28;20031;-64
2023/05/03 10:21:58;;;;;;;8.30;7.22;;;;;;;16.14;38.20;102678.16;5107863;28;20102;-63
2023/05/03 10:24:24;;;;;;;7.40;6.70;;;;;;;16.56;38.19;102677.50;5082907;28;20020;-64
2023/05/03 10:26:50;;;;;;;8.48;6.15;;;;;;;16.85;38.20;102688.34;5092950;28;20031;-64
2023/05/03 10:29:34;;;;;;;7.78;6.38;;;;;;;16.98;38.10;102693.84;5098310;28;20472;-63
2023/05/03 10:32:29;;;;;;;10.20;6.60;;;;;;;16.97;38.10;102690.31;5110045;28;20024;-64
2023/05/03 10:34:57;;;;;;;7.32;6.47;;;;;;;16.90;36.68;102686.25;5107568;28;20059;-64
2023/05/03 10:37:25;;;;;;;10.98;6.60;;;;;;;17.09;36.04;102677.94;5104065;28;20031;-64
2023/05/03 10:39:51;;;;;;;7.85;6.22;;;;;;;17.31;36.72;102682.84;5070477;28;20048;-64
2023/05/03 10:42:23;;;;;;;10.88;6.57;;;;;;;17.41;36.33;102670.56;5104473;28;20026;-64
2023/05/03 10:44:53;;;;;;;9.25;6.45;;;;;;;17.53;35.78;102674.31;5111949;28;20032;-64
2023/05/03 10:47:22;;;;;;;9.68;6.15;;;;;;;17.34;36.19;102679.09;5108047;28;20034;-64
2023/05/03 10:50:13;;;;;;;9.27;6.45;;;;;;;17.69;37.71;102666.97;5110588;28;20127;-64
2023/05/03 10:52:38;;;;;;;7.15;5.72;;;;;;;17.95;35.37;102668.97;5111123;28;20419;-64
2023/05/03 10:55:11;;;;;;;7.38;5.43;;;;;;;18.19;36.55;102672.75;5111928;28;20058;-64
2023/05/03 10:57:40;;;;;;;8.25;5.90;;;;;;;17.95;36.17;102668.97;5109440;28;20081;-64
2023/05/03 11:00:11;;;;;;;7.13;6.10;;;;;;;17.89;34.97;102678.31;5111936;28;20102;-64
2023/05/03 11:02:53;;;;;;;10.35;6.32;;;;;;;17.76;35.94;102675.50;5109675;28;20030;-64
2023/05/03 11:05:20;;;;;;;7.30;5.13;;;;;;;18.40;35.82;102670.44;5107284;28;20379;-64
2023/05/03 11:07:45;;;;;;;7.55;5.60;;;;;;;18.52;35.55;102666.94;5110048;28;20104;-64
2023/05/03 11:10:18;;;;;;;10.80;5.80;;;;;;;18.54;36.74;102659.59;5111838;28;20035;-64
2023/05/03 11:12:44;;;;;;;10.00;5.80;;;;;;;18.44;36.34;102653.09;5111346;28;20031;-64
2023/05/03 11:15:11;;;;;;;7.32;6.22;;;;;;;18.50;34.12;102650.00;5109163;28;20028;-65
2023/05/03 11:17:40;;;;;;;10.25;5.82;;;;;;;18.65;34.26;102653.50;5108847;28;20501;-64
2023/05/03 11:20:08;;;;;;;11.60;6.00;;;;;;;18.74;33.88;102646.66;5108214;28;20080;-64
2023/05/03 11:22:35;;;;;;;7.43;5.47;;;;;;;18.84;33.93;102653.13;5109423;28;20019;-65
2023/05/03 11:25:00;;;;;;;8.65;5.13;;;;;;;18.97;36.09;102639.63;5090983;28;20071;-64
2023/05/03 11:27:25;;;;;;;9.35;5.95;;;;;;;18.92;35.69;102634.56;5103886;28;20047;-64
2023/05/03 11:29:52;;;;;;;8.00;5.07;;;;;;;18.97;34.98;102632.44;5109461;28;20399;-64